Derby, Texas
Current Conditions -  °F | °C
As of 3:53 PM on Monday 22 Dec 2014 (Local Time) from KCOT Reporting Station
Clear Clear  
Wind Chill: 76°   Ceiling: Unl
Heat Index: 76°   Visibility: 10mi
Dew Point: 51°   Wind: 0mph
Humidity: 42%   Direction: NA
Pressure: 29.63"   Gusts: NA
Location:  28.7236°N, 99.2694°W
Report Text: KCOT 222153Z AUTO 00000KT 10SM CLR 24/11 A2963 RMK AO2 SLP028 T02440106
Loading
Personal Weather Stations






























Interactive Weather Map New forecast layout! Learn more

10-Day Weather Forecast

Advertisements
Track Severe Weather on mobile